Time;durP1;ratioP1;P1;durP2;ratioP2;P2;SDS_P1;SDS_P2;PMS_P1;PMS_P2;Temp;Humidity;BMP_temperature;BMP_pressure;BME280_temperature;BME280_humidity;BME280_pressure;Samples;Min_cycle;Max_cycle;Signal;HPM_P1;HPM_P2
2021/09/20 00:01:53;;;;;;;4.95;4.47;;;;;;;12.02;76.96;101654.34;10496518;28;20059;-80
2021/09/20 00:06:55;;;;;;;5.30;4.78;;;;;;;11.94;76.54;101661.94;10492712;28;20048;-80
2021/09/20 00:11:57;;;;;;;5.82;4.20;;;;;;;11.92;76.67;101661.06;10504786;28;20493;-80
2021/09/20 00:16:59;;;;;;;6.72;5.32;;;;;;;11.88;76.59;101664.41;10478357;28;20501;-80
2021/09/20 00:22:00;;;;;;;4.85;4.30;;;;;;;11.80;76.90;101672.00;10504797;28;20485;-80
2021/09/20 00:27:02;;;;;;;8.30;5.55;;;;;;;11.70;77.44;101663.97;10491294;28;20488;-80
2021/09/20 00:32:04;;;;;;;10.75;5.72;;;;;;;11.59;78.06;101668.88;10523022;28;20056;-80
2021/09/20 00:37:06;;;;;;;7.07;5.22;;;;;;;11.46;78.22;101657.34;10525139;28;20077;-80
2021/09/20 00:42:08;;;;;;;6.00;5.20;;;;;;;11.38;78.24;101674.41;10507552;28;20063;-80
2021/09/20 00:47:10;;;;;;;5.93;5.25;;;;;;;11.32;78.74;101671.66;10486080;28;20053;-81
2021/09/20 00:52:12;;;;;;;7.45;5.55;;;;;;;11.24;78.85;101675.78;10485616;28;20056;-80
2021/09/20 00:57:18;;;;;;;8.00;5.20;;;;;;;11.20;79.08;101671.38;10499280;28;20059;-80
2021/09/20 01:02:19;;;;;;;9.82;5.45;;;;;;;11.17;79.31;101679.91;10485845;28;20063;-81
2021/09/20 01:07:21;;;;;;;7.40;5.63;;;;;;;11.11;79.62;101683.22;10468983;28;20052;-80
2021/09/20 01:12:23;;;;;;;6.55;5.10;;;;;;;11.00;81.42;101691.53;10502635;28;20056;-80
2021/09/20 01:17:25;;;;;;;7.90;5.68;;;;;;;10.91;81.42;101681.84;10512247;28;20053;-82
2021/09/20 01:22:28;;;;;;;6.32;5.72;;;;;;;10.80;81.92;101676.38;10526231;28;20056;-83
2021/09/20 01:27:29;;;;;;;6.50;5.55;;;;;;;10.75;82.47;101669.31;10497960;28;20086;-82
2021/09/20 01:32:31;;;;;;;8.25;6.28;;;;;;;10.64;83.85;101669.00;10502447;28;20071;-82
2021/09/20 01:37:33;;;;;;;6.82;4.88;;;;;;;10.27;85.37;101675.72;10497463;28;20055;-82
2021/09/20 01:42:35;;;;;;;8.00;5.30;;;;;;;10.15;86.91;101683.06;10543731;28;20144;-82
2021/09/20 01:47:36;;;;;;;9.27;5.90;;;;;;;10.00;87.65;101686.09;10508139;28;20052;-82
2021/09/20 01:52:40;;;;;;;7.47;4.88;;;;;;;9.82;88.95;101683.81;10500044;28;20084;-82
2021/09/20 01:57:42;;;;;;;6.60;5.45;;;;;;;9.65;89.67;101691.88;10483218;28;20071;-82
2021/09/20 02:02:44;;;;;;;7.40;5.85;;;;;;;9.54;90.21;101696.69;10528604;28;20462;-82
2021/09/20 02:07:46;;;;;;;8.05;5.32;;;;;;;9.35;91.79;101695.16;10500362;28;20044;-82
2021/09/20 02:12:47;;;;;;;5.65;5.07;;;;;;;9.27;92.71;101704.38;10524730;28;20063;-82
2021/09/20 02:17:49;;;;;;;7.03;5.70;;;;;;;9.15;93.05;101697.09;10511127;28;20052;-82
2021/09/20 02:22:50;;;;;;;9.18;6.15;;;;;;;9.13;93.56;101698.75;10533326;28;20052;-82
2021/09/20 02:27:52;;;;;;;6.60;5.80;;;;;;;9.10;93.99;101698.63;10496357;28;20048;-82
2021/09/20 02:32:54;;;;;;;6.85;5.63;;;;;;;8.89;95.00;101701.34;10498097;28;20067;-82
2021/09/20 02:37:55;;;;;;;9.63;5.65;;;;;;;8.96;95.19;101699.84;10506011;28;20055;-82
2021/09/20 02:42:57;;;;;;;7.95;6.60;;;;;;;8.82;95.68;101699.38;10481635;28;20063;-82
2021/09/20 02:47:59;;;;;;;6.93;5.93;;;;;;;8.64;96.82;101709.91;10482123;28;20048;-82
2021/09/20 02:53:00;;;;;;;8.00;7.07;;;;;;;8.66;96.48;101718.56;10519975;28;20059;-82
2021/09/20 02:58:02;;;;;;;10.02;6.65;;;;;;;8.67;96.01;101724.59;10513721;28;20355;-83
2021/09/20 03:03:06;;;;;;;10.77;6.47;;;;;;;8.55;96.25;101732.75;10506775;28;20067;-83
2021/09/20 03:08:08;;;;;;;8.68;6.18;;;;;;;8.52;96.60;101737.81;10480613;28;20071;-82
2021/09/20 03:13:09;;;;;;;9.43;6.20;;;;;;;8.42;97.18;101728.84;10502472;28;20097;-82
2021/09/20 03:18:10;;;;;;;10.13;6.95;;;;;;;8.40;97.56;101732.22;10539734;28;20059;-82
2021/09/20 03:23:12;;;;;;;10.80;6.93;;;;;;;8.40;97.60;101730.50;10526121;28;20071;-82
2021/09/20 03:28:14;;;;;;;8.18;6.93;;;;;;;8.30;97.99;101738.66;10504611;28;20055;-82
2021/09/20 03:33:15;;;;;;;7.53;5.85;;;;;;;8.29;97.79;101736.91;10479906;28;20201;-82
2021/09/20 03:38:17;;;;;;;8.25;6.82;;;;;;;8.24;97.57;101735.88;10479533;28;20079;-82
2021/09/20 03:43:19;;;;;;;7.72;6.63;;;;;;;8.11;97.75;101749.97;10497805;28;20075;-82
2021/09/20 03:48:20;;;;;;;9.93;6.80;;;;;;;8.00;98.43;101751.25;10513203;28;20052;-82
2021/09/20 03:53:22;;;;;;;8.45;6.75;;;;;;;7.95;98.42;101745.03;10512069;28;20055;-82
2021/09/20 03:58:23;;;;;;;9.07;6.22;;;;;;;7.91;99.37;101756.91;10482688;28;20500;-82
2021/09/20 04:03:25;;;;;;;8.98;6.68;;;;;;;7.88;99.51;101758.47;10509880;28;20055;-82
2021/09/20 04:08:27;;;;;;;8.77;6.68;;;;;;;7.88;99.43;101768.75;10490623;28;20058;-82
2021/09/20 04:13:29;;;;;;;10.90;6.80;;;;;;;7.85;99.86;101764.38;10479354;28;20053;-82
2021/09/20 04:18:31;;;;;;;8.75;7.10;;;;;;;7.89;100.00;101762.81;10501923;28;20048;-82
2021/09/20 04:23:32;;;;;;;7.53;6.72;;;;;;;7.87;100.00;101761.84;10530147;28;20063;-82
2021/09/20 04:28:34;;;;;;;7.20;6.13;;;;;;;7.82;100.00;101769.38;10506155;28;20056;-82
2021/09/20 04:33:36;;;;;;;9.07;6.70;;;;;;;7.75;100.00;101771.66;10502989;28;20508;-82
2021/09/20 04:38:37;;;;;;;11.50;8.52;;;;;;;7.72;100.00;101769.84;10489597;28;20040;-82
2021/09/20 04:43:39;;;;;;;11.18;6.90;;;;;;;7.65;100.00;101773.84;10502994;28;20063;-82
2021/09/20 04:48:40;;;;;;;9.88;8.15;;;;;;;7.70;100.00;101781.78;10499006;28;20059;-82
2021/09/20 04:53:42;;;;;;;10.45;7.57;;;;;;;7.67;100.00;101779.97;10501494;28;20064;-81
2021/09/20 04:58:43;;;;;;;9.60;7.00;;;;;;;7.55;100.00;101781.16;10516239;28;20060;-82
2021/09/20 05:03:45;;;;;;;9.40;7.07;;;;;;;7.46;100.00;101786.78;10511309;28;20057;-82
2021/09/20 05:08:47;;;;;;;10.13;7.80;;;;;;;7.47;100.00;101792.81;10515150;28;20055;-82
2021/09/20 05:13:48;;;;;;;11.70;8.00;;;;;;;7.48;100.00;101789.41;10501336;28;20459;-82
2021/09/20 05:18:50;;;;;;;8.50;6.43;;;;;;;7.37;100.00;101797.56;10484370;28;20048;-81
2021/09/20 05:23:52;;;;;;;12.05;7.57;;;;;;;7.39;100.00;101800.22;10526473;28;20055;-80
2021/09/20 05:28:53;;;;;;;9.07;7.20;;;;;;;7.37;100.00;101805.28;10511527;28;20491;-80
2021/09/20 05:33:55;;;;;;;8.98;6.97;;;;;;;7.32;100.00;101803.34;10502160;28;20424;-80
2021/09/20 05:38:57;;;;;;;9.40;7.70;;;;;;;7.32;100.00;101819.66;10502036;28;20071;-80
2021/09/20 05:43:58;;;;;;;9.50;7.60;;;;;;;7.28;100.00;101819.44;10510988;28;20052;-80
2021/09/20 05:49:00;;;;;;;10.15;8.32;;;;;;;7.32;100.00;101819.66;10522646;28;20059;-80
2021/09/20 05:54:02;;;;;;;8.45;6.78;;;;;;;7.34;100.00;101824.88;10498596;28;20090;-80
2021/09/20 05:59:04;;;;;;;12.35;8.43;;;;;;;7.40;100.00;101831.16;10515664;28;20056;-82
2021/09/20 06:04:05;;;;;;;11.88;9.20;;;;;;;7.58;100.00;101837.91;10502780;28;20059;-82
2021/09/20 06:09:07;;;;;;;14.65;9.60;;;;;;;7.77;100.00;101829.25;10482864;28;20106;-82
2021/09/20 06:14:09;;;;;;;13.70;9.35;;;;;;;7.80;100.00;101843.16;10501176;28;20067;-82
2021/09/20 06:19:10;;;;;;;12.50;9.15;;;;;;;8.04;100.00;101845.88;10518201;28;20514;-82
2021/09/20 06:24:12;;;;;;;16.20;10.18;;;;;;;8.23;100.00;101848.41;10487400;28;20425;-82
2021/09/20 06:29:13;;;;;;;16.40;12.02;;;;;;;8.43;100.00;101850.91;10492453;28;20404;-82
2021/09/20 06:34:15;;;;;;;18.45;11.85;;;;;;;8.63;100.00;101849.13;10524290;28;20056;-82
2021/09/20 06:39:17;;;;;;;17.33;12.15;;;;;;;8.86;100.00;101853.47;10484744;28;20048;-82
2021/09/20 06:44:18;;;;;;;20.17;13.90;;;;;;;9.16;99.05;101848.56;10481350;28;20061;-81
2021/09/20 06:49:21;;;;;;;16.90;13.32;;;;;;;9.30;97.29;101854.22;10481166;28;20040;-82
2021/09/20 06:54:23;;;;;;;17.63;12.90;;;;;;;9.51;95.38;101836.91;10480811;28;20064;-82
2021/09/20 06:59:25;;;;;;;18.00;12.77;;;;;;;9.72;93.81;101835.91;10481075;28;20056;-81
2021/09/20 07:04:26;;;;;;;16.67;12.05;;;;;;;9.97;91.98;101840.19;10480824;28;20541;-81
2021/09/20 07:09:28;;;;;;;13.32;10.73;;;;;;;10.17;91.32;101836.56;10485834;28;20051;-81
2021/09/20 07:14:29;;;;;;;14.38;11.15;;;;;;;10.34;89.02;101834.56;10503125;28;20056;-81
2021/09/20 07:19:31;;;;;;;12.60;9.77;;;;;;;10.54;88.09;101837.75;10505462;28;20047;-82
2021/09/20 07:24:32;;;;;;;13.18;9.95;;;;;;;10.92;85.91;101832.88;10498799;28;20060;-82
2021/09/20 07:29:34;;;;;;;13.18;9.65;;;;;;;11.20;83.03;101832.81;10492128;28;20083;-82
2021/09/20 07:34:36;;;;;;;12.63;9.65;;;;;;;11.55;81.57;101836.38;10503062;28;20058;-82
2021/09/20 07:39:37;;;;;;;10.05;8.38;;;;;;;11.65;79.01;101842.69;10521918;28;20083;-82
2021/09/20 07:44:38;;;;;;;9.60;8.48;;;;;;;12.02;78.23;101859.22;10495421;28;20070;-82
2021/09/20 07:49:40;;;;;;;9.93;8.00;;;;;;;12.43;74.66;101862.84;10502855;28;20052;-83
2021/09/20 07:54:42;;;;;;;9.18;8.20;;;;;;;12.70;68.71;101858.25;10504958;28;20063;-83
2021/09/20 07:59:45;;;;;;;10.75;7.80;;;;;;;12.85;68.54;101880.22;10504434;28;20050;-83
2021/09/20 08:04:46;;;;;;;10.75;8.40;;;;;;;12.97;68.18;101886.56;10500096;28;20051;-84
2021/09/20 08:09:48;;;;;;;8.40;7.57;;;;;;;13.10;66.47;101886.81;10500358;28;20063;-83
2021/09/20 08:14:49;;;;;;;9.43;8.27;;;;;;;13.05;65.90;101898.88;10500090;28;20044;-83
2021/09/20 08:19:51;;;;;;;9.75;7.55;;;;;;;13.12;66.28;101903.34;10549019;28;20060;-84
2021/09/20 08:24:52;;;;;;;10.18;7.95;;;;;;;13.29;66.26;101901.13;10481601;28;20056;-83
2021/09/20 08:29:54;;;;;;;8.40;7.43;;;;;;;13.23;66.53;101901.88;10516711;28;20049;-84
2021/09/20 08:34:55;;;;;;;8.40;7.45;;;;;;;13.43;64.28;101903.16;10478884;28;20071;-82
2021/09/20 08:39:57;;;;;;;9.50;8.00;;;;;;;13.45;64.83;101909.28;10487970;28;20060;-81
2021/09/20 08:44:58;;;;;;;7.65;6.88;;;;;;;13.69;60.40;101905.41;10534359;28;20051;-81
2021/09/20 08:50:01;;;;;;;6.38;5.78;;;;;;;13.57;62.73;101913.84;10520331;28;20071;-80
2021/09/20 08:55:04;;;;;;;8.57;6.93;;;;;;;13.84;61.94;101916.09;10524179;28;20055;-82
2021/09/20 09:00:08;;;;;;;8.77;6.95;;;;;;;13.81;61.49;101925.56;10502592;28;20512;-82
2021/09/20 09:05:34;;;;;;;7.78;6.97;;;;;;;13.73;59.87;101934.09;10512873;28;20060;-82
2021/09/20 09:10:38;;;;;;;8.80;6.70;;;;;;;13.95;60.24;101940.56;10490570;28;20056;-82
2021/09/20 09:15:45;;;;;;;8.10;6.30;;;;;;;14.03;59.34;101945.94;10524178;28;20075;-85
2021/09/20 09:20:47;;;;;;;9.73;7.00;;;;;;;14.08;59.13;101946.91;10525785;28;20132;-83
2021/09/20 09:25:50;;;;;;;9.27;6.50;;;;;;;14.06;58.79;101956.38;10495549;28;20059;-84
2021/09/20 09:30:55;;;;;;;7.85;6.75;;;;;;;14.15;58.46;101953.09;10530862;28;20435;-82
2021/09/20 09:36:00;;;;;;;7.18;6.43;;;;;;;14.29;57.35;101959.41;10512961;28;20398;-85
2021/09/20 09:41:04;;;;;;;10.63;6.30;;;;;;;14.30;57.31;101958.56;10503965;28;20056;-83
2021/09/20 09:46:20;;;;;;;5.78;5.28;;;;;;;14.52;57.76;101967.63;10508865;28;20052;-82
2021/09/20 09:51:22;;;;;;;7.43;5.43;;;;;;;14.83;54.63;101959.47;10483823;28;20520;-85
2021/09/20 09:56:25;;;;;;;6.82;5.20;;;;;;;15.26;54.34;101954.88;10483653;28;20044;-85
2021/09/20 10:01:34;;;;;;;6.20;5.60;;;;;;;15.33;53.86;101959.31;10516370;28;20052;-85
2021/09/20 10:06:42;;;;;;;9.10;5.15;;;;;;;15.91;52.96;101953.97;10495387;28;20110;-85
2021/09/20 10:11:47;;;;;;;7.55;5.75;;;;;;;15.95;52.20;101957.50;10511007;28;20067;-84
2021/09/20 10:16:53;;;;;;;5.00;4.40;;;;;;;17.15;48.89;101955.00;10517385;28;20059;-86
2021/09/20 10:21:55;;;;;;;4.90;4.40;;;;;;;17.04;48.39;101952.34;10519308;28;20306;-85
2021/09/20 10:26:56;;;;;;;7.43;4.38;;;;;;;17.20;47.88;101948.94;10495962;28;20059;-85
2021/09/20 10:31:58;;;;;;;5.82;5.18;;;;;;;17.06;48.13;101944.50;10482868;28;20071;-83
2021/09/20 10:37:02;;;;;;;5.10;4.60;;;;;;;18.15;47.43;101938.81;10518223;28;20059;-84
2021/09/20 10:42:04;;;;;;;8.60;4.70;;;;;;;18.36;46.12;101943.19;10541866;28;20067;-83
2021/09/20 10:47:14;;;;;;;6.28;5.28;;;;;;;18.09;46.01;101948.38;10502185;28;20048;-84
2021/09/20 10:52:17;;;;;;;7.43;5.38;;;;;;;18.24;44.43;101937.94;10526546;28;20105;-83
2021/09/20 10:57:19;;;;;;;6.15;5.55;;;;;;;18.30;44.00;101931.84;10498664;28;20435;-84
2021/09/20 11:02:29;;;;;;;8.85;5.25;;;;;;;18.38;44.12;101936.22;10481397;28;20057;-84
2021/09/20 11:07:58;;;;;;;6.80;5.63;;;;;;;16.99;47.51;101945.31;10481107;28;20538;-83
2021/09/20 11:12:59;;;;;;;5.57;5.07;;;;;;;17.57;46.73;101951.72;10461269;28;20068;-83
2021/09/20 11:18:01;;;;;;;6.03;4.90;;;;;;;18.63;44.90;101951.94;10498304;28;20413;-84
2021/09/20 11:23:40;;;;;;;5.85;5.25;;;;;;;18.63;46.48;101954.56;10524723;28;20064;-85
2021/09/20 11:28:45;;;;;;;4.95;4.45;;;;;;;18.69;44.46;101959.81;10520266;28;20611;-86
2021/09/20 11:33:52;;;;;;;8.27;6.40;;;;;;;17.84;46.30;101963.19;10485444;28;20052;-84
2021/09/20 11:39:11;;;;;;;6.30;5.68;;;;;;;17.99;46.31;101964.09;10497481;28;20056;-84
2021/09/20 11:44:15;;;;;;;5.45;4.70;;;;;;;18.46;44.68;101965.03;10479890;28;20060;-83
2021/09/20 11:49:17;;;;;;;4.95;4.50;;;;;;;17.96;46.50;101971.06;10477557;28;20044;-84
2021/09/20 11:54:34;;;;;;;5.88;5.03;;;;;;;17.52;48.26;101982.22;10476689;28;20053;-82
2021/09/20 11:59:36;;;;;;;4.78;4.10;;;;;;;17.46;48.74;101990.03;10477772;28;20056;-83
2021/09/20 12:04:48;;;;;;;5.80;5.20;;;;;;;16.73;50.67;101994.78;10479331;28;20053;-83
2021/09/20 12:09:50;;;;;;;5.97;5.20;;;;;;;16.69;50.58;101986.91;10496873;28;20059;-84
2021/09/20 12:14:58;;;;;;;9.35;5.75;;;;;;;16.72;51.35;102000.88;10495336;28;20055;-83
2021/09/20 12:19:59;;;;;;;6.57;5.20;;;;;;;16.65;51.31;102011.25;10496192;28;20504;-82
2021/09/20 12:25:21;;;;;;;6.32;5.72;;;;;;;16.38;52.75;102014.47;10482142;28;20067;-82
2021/09/20 12:30:24;;;;;;;7.00;4.75;;;;;;;16.26;53.90;102030.03;10486434;28;20053;-82
2021/09/20 12:35:30;;;;;;;7.15;5.68;;;;;;;16.27;54.58;102036.13;10513749;28;20056;-82
2021/09/20 12:40:36;;;;;;;7.75;5.05;;;;;;;16.12;54.45;102032.50;10490355;28;20144;-82
2021/09/20 12:45:41;;;;;;;6.15;5.57;;;;;;;16.11;54.27;102036.00;10513380;28;20090;-83
2021/09/20 12:50:48;;;;;;;6.53;4.85;;;;;;;16.28;53.86;102040.50;10531127;28;20079;-82
2021/09/20 12:55:52;;;;;;;7.57;5.35;;;;;;;16.17;53.87;102037.78;10486216;28;20049;-85
2021/09/20 13:00:55;;;;;;;6.20;4.93;;;;;;;16.16;54.48;102036.00;10495156;28;20508;-82
2021/09/20 13:05:57;;;;;;;6.65;4.85;;;;;;;16.15;54.44;102047.31;10526465;28;20109;-84
2021/09/20 13:11:17;;;;;;;4.65;4.25;;;;;;;15.93;53.86;102058.38;10523613;28;20052;-86
2021/09/20 13:16:38;;;;;;;5.43;4.82;;;;;;;16.06;53.94;102070.72;10508825;28;20047;-82
2021/09/20 13:21:40;;;;;;;5.00;4.50;;;;;;;16.04;53.45;102064.59;10529076;28;20500;-83
2021/09/20 13:26:41;;;;;;;6.35;4.95;;;;;;;16.21;53.08;102063.06;10528540;28;20408;-82
2021/09/20 13:31:43;;;;;;;4.90;4.30;;;;;;;16.29;54.20;102068.38;10526220;28;20530;-82
2021/09/20 13:36:45;;;;;;;5.70;3.70;;;;;;;16.18;53.83;102065.66;10544466;28;20063;-82
2021/09/20 13:41:47;;;;;;;5.75;4.47;;;;;;;15.98;52.27;102073.22;10525549;28;20070;-87
2021/09/20 13:46:49;;;;;;;10.15;4.60;;;;;;;15.83;52.28;102065.22;10484879;28;20048;-83
2021/09/20 13:51:50;;;;;;;4.15;2.83;;;;;;;15.89;51.89;102073.13;10483785;28;20072;-82
2021/09/20 13:56:52;;;;;;;5.93;4.13;;;;;;;15.88;51.71;102066.13;10482521;28;20523;-81
2021/09/20 14:01:53;;;;;;;5.03;4.22;;;;;;;15.76;52.91;102076.41;10482292;28;20060;-82
2021/09/20 14:06:55;;;;;;;5.72;4.57;;;;;;;15.97;53.55;102070.59;10514723;28;20122;-84
2021/09/20 14:11:56;;;;;;;4.78;3.75;;;;;;;15.81;53.05;102075.63;10500823;28;20072;-85
2021/09/20 14:16:58;;;;;;;12.40;3.35;;;;;;;15.90;53.46;102080.97;10482823;28;20409;-83
2021/09/20 14:22:00;;;;;;;4.05;2.92;;;;;;;15.70;52.32;102077.22;10526038;28;20063;-82
2021/09/20 14:27:03;;;;;;;8.43;2.75;;;;;;;15.87;53.17;102090.50;10509347;28;20098;-82
2021/09/20 14:32:04;;;;;;;6.30;2.70;;;;;;;15.46;52.71;102090.75;10499956;28;20052;-83
2021/09/20 14:37:07;;;;;;;2.95;2.22;;;;;;;15.42;52.16;102090.69;10492068;28;20523;-81
2021/09/20 14:42:09;;;;;;;4.47;2.15;;;;;;;15.41;52.02;102081.09;10485062;28;20751;-82
2021/09/20 14:47:12;;;;;;;3.42;2.13;;;;;;;15.63;53.16;102091.91;10504956;28;20049;-82
2021/09/20 14:52:13;;;;;;;2.35;2.03;;;;;;;15.54;55.01;102086.53;10481444;28;20056;-83
2021/09/20 14:57:15;;;;;;;4.47;2.25;;;;;;;15.64;54.43;102088.44;10480493;28;20078;-82
2021/09/20 15:02:18;;;;;;;4.07;2.00;;;;;;;15.50;54.35;102092.56;10499071;28;20056;-83
2021/09/20 15:07:20;;;;;;;2.42;2.20;;;;;;;15.70;55.04;102099.81;10480633;28;20079;-82
2021/09/20 15:12:21;;;;;;;2.88;1.98;;;;;;;15.67;54.50;102102.41;10494652;28;20063;-83
2021/09/20 15:17:23;;;;;;;3.22;1.90;;;;;;;15.43;53.18;102108.06;10509819;28;20060;-82
2021/09/20 15:22:28;;;;;;;2.15;1.70;;;;;;;15.65;55.01;102110.19;10536746;28;20056;-82
2021/09/20 15:27:29;;;;;;;2.77;1.70;;;;;;;15.42;53.86;102101.13;10510745;28;20048;-82
2021/09/20 15:32:31;;;;;;;3.97;2.00;;;;;;;15.77;54.42;102097.34;10497451;28;20114;-82
2021/09/20 15:37:34;;;;;;;1.73;1.42;;;;;;;15.81;54.82;102104.34;10479725;28;20055;-82
2021/09/20 15:42:45;;;;;;;4.55;1.30;;;;;;;15.57;51.38;102107.44;10525963;28;20052;-82
2021/09/20 15:47:51;;;;;;;3.25;1.27;;;;;;;15.06;53.87;102117.94;10521946;28;20451;-82
2021/09/20 15:52:53;;;;;;;2.38;1.50;;;;;;;14.95;54.74;102136.00;10492814;28;20502;-82
2021/09/20 15:57:55;;;;;;;2.00;0.95;;;;;;;14.81;55.54;102142.69;10510067;28;20131;-82
2021/09/20 16:02:57;;;;;;;3.20;1.52;;;;;;;15.07;55.36;102138.81;10509978;28;20414;-82
2021/09/20 16:07:59;;;;;;;2.25;1.67;;;;;;;15.07;55.36;102138.81;10510169;28;20084;-82
2021/09/20 16:13:00;;;;;;;1.63;1.30;;;;;;;15.18;55.40;102131.16;10511432;28;20488;-82
2021/09/20 16:18:02;;;;;;;2.03;1.70;;;;;;;15.11;53.12;102148.44;10523213;28;20048;-81
2021/09/20 16:23:04;;;;;;;2.83;1.60;;;;;;;14.83;55.33;102164.44;10501889;28;20052;-82
2021/09/20 16:28:05;;;;;;;1.65;1.33;;;;;;;14.70;56.22;102168.53;10523979;28;20496;-84
2021/09/20 16:33:07;;;;;;;2.92;1.70;;;;;;;14.49;57.83;102179.41;10527047;28;20052;-81
2021/09/20 16:38:08;;;;;;;2.40;1.80;;;;;;;14.38;57.65;102172.19;10508675;28;20093;-81
2021/09/20 16:43:10;;;;;;;3.38;1.42;;;;;;;14.47;57.71;102185.44;10513104;28;20048;-81
2021/09/20 16:48:11;;;;;;;2.63;1.10;;;;;;;14.26;58.65;102191.03;10493121;28;20055;-81
2021/09/20 16:53:13;;;;;;;2.53;1.50;;;;;;;14.35;58.85;102187.72;10504307;28;20492;-81
2021/09/20 16:58:15;;;;;;;2.28;1.73;;;;;;;14.16;61.74;102202.09;10504089;28;20052;-84
2021/09/20 17:03:16;;;;;;;1.23;1.10;;;;;;;14.03;61.88;102198.34;10499738;28;20055;-83
2021/09/20 17:08:19;;;;;;;2.40;1.40;;;;;;;13.91;63.13;102216.28;10502185;28;20052;-82
2021/09/20 17:13:21;;;;;;;1.70;1.38;;;;;;;13.72;64.46;102226.22;10500758;28;20061;-83
2021/09/20 17:18:23;;;;;;;4.30;1.48;;;;;;;13.63;66.04;102236.41;10521183;28;20059;-83
2021/09/20 17:23:27;;;;;;;3.60;1.92;;;;;;;13.67;66.23;102234.75;10494019;28;20480;-83
2021/09/20 17:28:29;;;;;;;3.42;1.58;;;;;;;13.22;69.37;102245.78;10518388;28;20063;-83
2021/09/20 17:33:31;;;;;;;7.68;2.22;;;;;;;12.96;71.49;102252.81;10524170;28;20053;-83
2021/09/20 17:38:33;;;;;;;2.58;1.73;;;;;;;12.87;71.85;102265.53;10531856;28;20048;-83
2021/09/20 17:43:36;;;;;;;2.30;1.48;;;;;;;12.58;73.27;102268.16;10513513;28;20119;-83
2021/09/20 17:48:38;;;;;;;4.13;1.88;;;;;;;12.34;74.79;102278.69;10513534;28;20161;-83
2021/09/20 17:53:39;;;;;;;3.85;1.65;;;;;;;12.07;76.23;102283.91;10530125;28;20408;-83
2021/09/20 17:58:41;;;;;;;4.35;1.90;;;;;;;11.86;78.46;102289.28;10517751;28;20127;-83
2021/09/20 18:03:43;;;;;;;6.28;2.15;;;;;;;11.76;77.44;102291.50;10532810;28;20070;-83
2021/09/20 18:08:45;;;;;;;3.70;1.95;;;;;;;11.64;79.04;102300.63;10536010;28;20040;-83
2021/09/20 18:13:47;;;;;;;4.72;2.92;;;;;;;11.68;79.29;102314.53;10532506;28;20083;-83
2021/09/20 18:18:54;;;;;;;4.90;1.65;;;;;;;11.57;80.22;102323.66;10505546;28;20074;-83
2021/09/20 18:24:17;;;;;;;4.50;2.05;;;;;;;11.47;80.53;102322.50;10529455;28;20490;-83
2021/09/20 18:29:19;;;;;;;6.47;1.70;;;;;;;11.33;81.84;102340.13;10532045;28;20051;-83
2021/09/20 18:34:20;;;;;;;2.92;1.70;;;;;;;11.14;84.52;102348.06;10514429;28;20074;-82
2021/09/20 18:39:22;;;;;;;5.43;1.80;;;;;;;11.27;83.59;102360.63;10507525;28;20419;-83
2021/09/20 18:44:23;;;;;;;2.58;2.10;;;;;;;11.32;82.40;102358.22;10512604;28;20055;-83
2021/09/20 18:49:25;;;;;;;3.38;1.38;;;;;;;11.43;79.65;102354.28;10509164;28;20047;-83
2021/09/20 18:54:27;;;;;;;3.83;1.88;;;;;;;11.33;81.56;102366.03;10514008;28;20412;-83
2021/09/20 18:59:29;;;;;;;1.63;1.52;;;;;;;11.51;80.15;102365.81;10512855;28;20543;-82
2021/09/20 19:04:31;;;;;;;5.30;2.15;;;;;;;11.56;78.10;102365.97;10534673;28;20416;-82
2021/09/20 19:09:34;;;;;;;3.40;2.10;;;;;;;11.59;76.44;102366.97;10505229;28;20059;-82
2021/09/20 19:14:37;;;;;;;3.10;1.70;;;;;;;11.64;74.09;102370.59;10504581;28;20049;-83
2021/09/20 19:19:39;;;;;;;3.67;1.27;;;;;;;11.71;74.64;102384.66;10528112;28;20083;-82
2021/09/20 19:24:42;;;;;;;1.85;1.50;;;;;;;11.65;75.71;102398.28;10515156;28;20063;-83
2021/09/20 19:29:43;;;;;;;1.63;1.38;;;;;;;11.66;74.78;102394.88;10526239;28;20059;-82
2021/09/20 19:34:45;;;;;;;1.65;1.38;;;;;;;11.57;75.81;102402.34;10507678;28;20470;-82
2021/09/20 19:39:47;;;;;;;2.75;1.77;;;;;;;11.53;78.82;102397.84;10499232;28;20062;-83
2021/09/20 19:44:51;;;;;;;5.70;2.35;;;;;;;11.32;80.32;102391.88;10538781;28;20052;-83
2021/09/20 19:49:53;;;;;;;3.22;1.65;;;;;;;11.14;81.88;102390.38;10524452;28;20055;-83
2021/09/20 19:54:55;;;;;;;2.10;1.90;;;;;;;10.87;83.45;102387.63;10538676;28;20082;-82
2021/09/20 19:59:56;;;;;;;2.88;2.00;;;;;;;10.68;85.08;102387.75;10525137;28;20051;-83
2021/09/20 20:04:58;;;;;;;2.42;1.70;;;;;;;10.39;85.55;102398.66;10517634;28;20095;-82
2021/09/20 20:09:59;;;;;;;3.83;1.90;;;;;;;10.23;86.51;102394.50;10486373;28;20052;-83
2021/09/20 20:15:02;;;;;;;2.63;1.55;;;;;;;9.83;87.94;102405.75;10520673;28;20085;-82
2021/09/20 20:20:06;;;;;;;3.20;1.85;;;;;;;9.87;86.98;102414.50;10523288;28;20416;-83
2021/09/20 20:25:08;;;;;;;2.08;1.85;;;;;;;9.87;87.55;102409.34;10493566;28;20466;-82
2021/09/20 20:30:10;;;;;;;4.05;2.20;;;;;;;9.71;89.16;102429.38;10519901;28;20488;-82
2021/09/20 20:35:15;;;;;;;3.42;1.45;;;;;;;9.59;90.08;102425.34;10538047;28;20059;-82
2021/09/20 20:40:17;;;;;;;2.85;1.70;;;;;;;9.48;90.07;102430.06;10520025;28;20052;-83
2021/09/20 20:45:18;;;;;;;4.18;2.28;;;;;;;9.34;90.69;102441.44;10517684;28;20569;-83
2021/09/20 20:50:20;;;;;;;3.58;1.85;;;;;;;9.01;91.59;102450.28;10487228;28;20052;-82
2021/09/20 20:55:25;;;;;;;3.88;2.10;;;;;;;8.96;92.61;102453.44;10545221;28;20063;-83
2021/09/20 21:00:27;;;;;;;5.18;1.88;;;;;;;8.75;93.40;102467.09;10544098;28;20106;-83
2021/09/20 21:05:28;;;;;;;3.40;2.30;;;;;;;8.76;94.59;102474.03;10513334;28;20070;-82
2021/09/20 21:10:30;;;;;;;2.85;2.08;;;;;;;8.71;94.43;102472.03;10527262;28;20408;-83
2021/09/20 21:15:31;;;;;;;9.38;2.55;;;;;;;8.69;94.34;102482.28;10524295;28;20101;-83
2021/09/20 21:20:33;;;;;;;4.63;2.80;;;;;;;8.72;93.93;102500.50;10536086;28;20133;-82
2021/09/20 21:25:35;;;;;;;4.40;2.80;;;;;;;8.53;94.68;102510.72;10518635;28;20067;-83
2021/09/20 21:30:46;;;;;;;4.40;2.35;;;;;;;8.49;94.21;102526.84;10514553;28;20093;-83
2021/09/20 21:35:49;;;;;;;3.45;2.53;;;;;;;8.62;92.71;102524.09;10526446;28;20051;-83
2021/09/20 21:40:51;;;;;;;5.38;3.38;;;;;;;8.59;92.50;102539.41;10526091;28;20059;-83
2021/09/20 21:45:53;;;;;;;3.35;2.90;;;;;;;8.63;92.71;102530.13;10543913;28;20048;-83
2021/09/20 21:50:54;;;;;;;4.38;2.88;;;;;;;8.64;91.80;102530.19;10525384;28;20052;-83
2021/09/20 21:55:56;;;;;;;4.30;3.50;;;;;;;8.54;92.06;102527.97;10522197;28;20094;-82
2021/09/20 22:01:03;;;;;;;4.07;3.33;;;;;;;8.55;91.84;102529.72;10514097;28;20059;-83
2021/09/20 22:06:06;;;;;;;4.88;3.30;;;;;;;8.44;92.05;102536.03;10543085;28;20080;-82
2021/09/20 22:11:08;;;;;;;5.78;3.63;;;;;;;8.42;91.67;102524.75;10524604;28;20052;-82
2021/09/20 22:16:09;;;;;;;4.95;3.63;;;;;;;8.39;92.30;102514.28;10519181;28;20061;-83
2021/09/20 22:21:11;;;;;;;4.35;3.13;;;;;;;8.31;91.94;102511.28;10510453;28;20121;-82
2021/09/20 22:26:12;;;;;;;4.28;3.65;;;;;;;8.19;91.97;102521.88;10523513;28;20052;-83
2021/09/20 22:31:14;;;;;;;6.03;3.63;;;;;;;7.87;93.66;102522.75;10511129;28;20056;-83
2021/09/20 22:36:16;;;;;;;3.63;3.28;;;;;;;7.84;94.10;102527.75;10509847;28;20052;-83
2021/09/20 22:41:17;;;;;;;7.53;3.35;;;;;;;7.77;94.56;102529.91;10513380;28;20063;-83
2021/09/20 22:46:20;;;;;;;5.75;4.15;;;;;;;7.68;94.81;102522.59;10495598;28;20059;-83
2021/09/20 22:51:22;;;;;;;4.88;3.65;;;;;;;7.47;96.71;102540.31;10508679;28;20126;-82
2021/09/20 22:56:23;;;;;;;5.55;3.17;;;;;;;7.52;95.30;102551.78;10518440;28;20110;-82
2021/09/20 23:01:25;;;;;;;5.15;3.72;;;;;;;7.46;95.56;102554.00;10520530;28;20062;-82
2021/09/20 23:06:27;;;;;;;3.78;3.30;;;;;;;7.40;95.62;102561.41;10522871;28;20063;-82
2021/09/20 23:11:28;;;;;;;3.90;3.50;;;;;;;7.18;96.17;102570.50;10511544;28;20492;-82